Andiamo — WDE2131 — position and weather

sailwx.info

Track history (hours):
 
Tides and Currents Weather Stations Pressure Air Temp Water Temp Dewpoint Dewpoint Depression Visibility Wind Speed Wind Dir Waves Ship Positions

Andiamo

Owner: Briggs, Robert O, Newport Beach, CA. More information available from US FCC via Universal Licensing System.

Last reported at 2015-Nov-13 14:11 UTC. Time now 2016-May-01 11:46 UTC.
Position N 32°22' W 117°27'.
Warning: this ship's position is months out of date.

Length 22 m.

Type: Pleasure craft. MMSI: 367320870.

Date/timePositionNaut miles runAvg speedWind from/ knotsBaromVisibWave heightAir tempDewpointWater temp
2015-Nov-13 14:11N 32°22' W 117°27'6 9.6
2015-Nov-13 13:34N 32°28' W 117°29'8 8.3
2015-Nov-13 12:34N 32°36' W 117°31'8 8.2
2015-Nov-13 11:34N 32°44' W 117°34'8 8.2
2015-Nov-13 10:33N 32°52' W 117°36'9 9.2
2015-Nov-13 09:34N 33°00' W 117°40'9 9.1
2015-Nov-13 08:34N 33°09' W 117°43'9 9.0
2015-Nov-13 07:33N 33°18' W 117°46'9 9.1
2015-Nov-13 06:33N 33°26' W 117°50'9 9.1
2015-Nov-13 05:31N 33°35' W 117°53'3 2.6
2015-Nov-13 04:33N 33°37' W 117°55'0 0.0
2015-Nov-13 03:33N 33°37' W 117°55'0 0.0
2015-Nov-13 02:34N 33°37' W 117°55'0 0.0
2015-Nov-13 00:20N 33°37' W 117°55'0 0.0
2015-Nov-12 23:33N 33°37' W 117°55'0 0.0
2015-Nov-12 21:26N 33°37' W 117°55'0 0.0
2015-Nov-12 20:28N 33°37' W 117°55'0 0.0
2015-Nov-12 17:32N 33°37' W 117°55'0 0.0
2015-Nov-12 10:33N 33°37' W 117°55'0 0.0
2015-Nov-12 00:20N 33°37' W 117°55'0 0.0
2015-Nov-11 23:34N 33°37' W 117°55'0 0.0
2015-Nov-11 22:33N 33°37' W 117°55'0 0.0
2015-Nov-11 21:32N 33°37' W 117°55'0 0.0
2015-Nov-11 20:21N 33°37' W 117°55'  
2015-Nov-09 05:29N 33°37' W 117°55'0 0.0
2015-Nov-09 03:13N 33°37' W 117°55'0 0.0
2015-Nov-09 02:30N 33°37' W 117°55'0 0.0
2015-Nov-09 01:34N 33°37' W 117°55'0 0.0
2015-Nov-09 00:34N 33°37' W 117°55'0 0.0
2015-Nov-08 23:34N 33°37' W 117°55'0 0.0
2015-Nov-08 22:33N 33°37' W 117°55'0 0.0
2015-Nov-08 21:31N 33°37' W 117°55'0 0.0
2015-Nov-08 20:34N 33°37' W 117°55'0 0.0
2015-Nov-08 19:34N 33°37' W 117°55'0 0.0
2015-Nov-08 18:31N 33°37' W 117°55'0 0.0
2015-Nov-08 08:29N 33°37' W 117°55'0 0.0
2015-Nov-08 07:33N 33°37' W 117°55'0 0.0
2015-Nov-08 06:34N 33°37' W 117°55'0 0.0
2015-Nov-08 05:32N 33°37' W 117°55'0 0.0
2015-Nov-08 04:25N 33°37' W 117°55'0 0.0
2015-Nov-08 03:33N 33°37' W 117°55'0 0.0
2015-Nov-08 02:33N 33°37' W 117°55'0 0.0
2015-Nov-08 01:29N 33°37' W 117°55'0 0.0
2015-Nov-07 23:33N 33°37' W 117°55'0 0.0
2015-Nov-07 22:34N 33°37' W 117°55'0 0.0
2015-Nov-07 21:33N 33°37' W 117°55'0 0.0
2015-Nov-07 20:34N 33°37' W 117°55'0 0.0
2015-Nov-07 19:33N 33°37' W 117°55'0 0.0
2015-Nov-07 18:33N 33°37' W 117°55'0 0.0
2015-Nov-07 17:34N 33°37' W 117°55'0 0.0
2015-Nov-07 16:28N 33°37' W 117°55'0 0.0
2015-Nov-07 04:04N 33°37' W 117°55'0 0.0
2015-Nov-07 03:31N 33°37' W 117°55'0 0.0
2015-Nov-06 23:26N 33°37' W 117°55'0 0.0
2015-Nov-06 22:33N 33°37' W 117°55'0 0.0
2015-Nov-06 21:33N 33°37' W 117°55'0 0.0
2015-Nov-06 20:33N 33°37' W 117°55'0 0.0
2015-Nov-06 18:33N 33°37' W 117°55'0 0.0
2015-Nov-06 13:08N 33°37' W 117°55'0 0.0
2015-Nov-06 12:32N 33°37' W 117°55'  
Track history (hours):
 
Tides and Currents Weather Stations Pressure Air Temp Water Temp Dewpoint Dewpoint Depression Visibility Wind Speed Wind Dir Waves Ship Positions

Andiamo

Owner: Briggs, Robert O, Newport Beach, CA. More information available from US FCC via Universal Licensing System.

Last reported at 2015-Nov-13 14:11 UTC. Time now 2016-May-01 11:46 UTC.
Position N 32°22' W 117°27'.
Warning: this ship's position is months out of date.

Length 22 m.

Type: Pleasure craft. MMSI: 367320870.

Date/timePositionNaut miles runAvg speedWind from/ knotsBaromVisibWave heightAir tempDewpointWater temp
2015-Nov-13 14:11N 32°22' W 117°27'6 9.6
2015-Nov-13 13:34N 32°28' W 117°29'8 8.3
2015-Nov-13 12:34N 32°36' W 117°31'8 8.2
2015-Nov-13 11:34N 32°44' W 117°34'8 8.2
2015-Nov-13 10:33N 32°52' W 117°36'9 9.2
2015-Nov-13 09:34N 33°00' W 117°40'9 9.1
2015-Nov-13 08:34N 33°09' W 117°43'9 9.0
2015-Nov-13 07:33N 33°18' W 117°46'9 9.1
2015-Nov-13 06:33N 33°26' W 117°50'9 9.1
2015-Nov-13 05:31N 33°35' W 117°53'3 2.6
2015-Nov-13 04:33N 33°37' W 117°55'0 0.0
2015-Nov-13 03:33N 33°37' W 117°55'0 0.0
2015-Nov-13 02:34N 33°37' W 117°55'0 0.0
2015-Nov-13 00:20N 33°37' W 117°55'0 0.0
2015-Nov-12 23:33N 33°37' W 117°55'0 0.0
2015-Nov-12 21:26N 33°37' W 117°55'0 0.0
2015-Nov-12 20:28N 33°37' W 117°55'0 0.0
2015-Nov-12 17:32N 33°37' W 117°55'0 0.0
2015-Nov-12 10:33N 33°37' W 117°55'0 0.0
2015-Nov-12 00:20N 33°37' W 117°55'0 0.0
2015-Nov-11 23:34N 33°37' W 117°55'0 0.0
2015-Nov-11 22:33N 33°37' W 117°55'0 0.0
2015-Nov-11 21:32N 33°37' W 117°55'0 0.0
2015-Nov-11 20:21N 33°37' W 117°55'  
2015-Nov-09 05:29N 33°37' W 117°55'0 0.0
2015-Nov-09 03:13N 33°37' W 117°55'0 0.0
2015-Nov-09 02:30N 33°37' W 117°55'0 0.0
2015-Nov-09 01:34N 33°37' W 117°55'0 0.0
2015-Nov-09 00:34N 33°37' W 117°55'0 0.0
2015-Nov-08 23:34N 33°37' W 117°55'0 0.0
2015-Nov-08 22:33N 33°37' W 117°55'0 0.0
2015-Nov-08 21:31N 33°37' W 117°55'0 0.0
2015-Nov-08 20:34N 33°37' W 117°55'0 0.0
2015-Nov-08 19:34N 33°37' W 117°55'0 0.0
2015-Nov-08 18:31N 33°37' W 117°55'0 0.0
2015-Nov-08 08:29N 33°37' W 117°55'0 0.0
2015-Nov-08 07:33N 33°37' W 117°55'0 0.0
2015-Nov-08 06:34N 33°37' W 117°55'0 0.0
2015-Nov-08 05:32N 33°37' W 117°55'0 0.0
2015-Nov-08 04:25N 33°37' W 117°55'0 0.0
2015-Nov-08 03:33N 33°37' W 117°55'0 0.0
2015-Nov-08 02:33N 33°37' W 117°55'0 0.0
2015-Nov-08 01:29N 33°37' W 117°55'0 0.0
2015-Nov-07 23:33N 33°37' W 117°55'0 0.0
2015-Nov-07 22:34N 33°37' W 117°55'0 0.0
2015-Nov-07 21:33N 33°37' W 117°55'0 0.0
2015-Nov-07 20:34N 33°37' W 117°55'0 0.0
2015-Nov-07 19:33N 33°37' W 117°55'0 0.0
2015-Nov-07 18:33N 33°37' W 117°55'0 0.0
2015-Nov-07 17:34N 33°37' W 117°55'0 0.0
2015-Nov-07 16:28N 33°37' W 117°55'0 0.0
2015-Nov-07 04:04N 33°37' W 117°55'0 0.0
2015-Nov-07 03:31N 33°37' W 117°55'0 0.0
2015-Nov-06 23:26N 33°37' W 117°55'0 0.0
2015-Nov-06 22:33N 33°37' W 117°55'0 0.0
2015-Nov-06 21:33N 33°37' W 117°55'0 0.0
2015-Nov-06 20:33N 33°37' W 117°55'0 0.0
2015-Nov-06 18:33N 33°37' W 117°55'0 0.0
2015-Nov-06 13:08N 33°37' W 117°55'0 0.0
2015-Nov-06 12:32N 33°37' W 117°55'  

Dump ship's entire track history